createdAt,value
2023-05-16T00:02:02.411Z,2.00
2023-05-16T00:04:29.735Z,1.70
2023-05-16T00:06:57.256Z,1.90
2023-05-16T00:09:24.331Z,1.90
2023-05-16T00:11:51.491Z,2.20
2023-05-16T00:14:19.990Z,1.90
2023-05-16T00:16:47.530Z,1.90
2023-05-16T00:19:15.590Z,2.30
2023-05-16T00:21:44.894Z,2.00
2023-05-16T00:24:12.301Z,1.70
2023-05-16T00:26:39.386Z,1.80
2023-05-16T00:29:07.169Z,1.90
2023-05-16T00:31:34.544Z,2.00
2023-05-16T00:34:01.697Z,2.10
2023-05-16T00:36:29.237Z,2.00
2023-05-16T00:38:56.588Z,2.00
2023-05-16T00:41:23.841Z,2.30
2023-05-16T00:43:51.181Z,2.00
2023-05-16T00:46:18.385Z,2.60
2023-05-16T00:48:45.628Z,2.00
2023-05-16T00:51:12.804Z,2.00
2023-05-16T00:53:39.813Z,2.20
2023-05-16T00:56:07.564Z,2.30
2023-05-16T00:58:34.753Z,2.10
2023-05-16T01:01:04.096Z,2.20
2023-05-16T01:03:31.788Z,2.20
2023-05-16T01:05:59.944Z,1.80
2023-05-16T01:08:27.257Z,2.30
2023-05-16T01:11:08.100Z,2.10
2023-05-16T01:13:47.544Z,2.10
2023-05-16T01:16:23.596Z,2.30
2023-05-16T01:19:00.294Z,1.80
2023-05-16T01:21:44.404Z,1.70
2023-05-16T01:24:22.272Z,1.80
2023-05-16T01:26:50.247Z,1.70
2023-05-16T01:29:17.833Z,1.90
2023-05-16T01:31:45.004Z,2.00
2023-05-16T01:34:13.007Z,2.00
2023-05-16T01:37:03.224Z,2.10
2023-05-16T01:39:53.390Z,2.00
2023-05-16T01:42:20.520Z,2.50
2023-05-16T01:45:00.728Z,2.00
2023-05-16T01:47:28.043Z,2.70
2023-05-16T01:50:10.800Z,1.80
2023-05-16T01:52:47.990Z,2.30
2023-05-16T01:55:22.186Z,2.10
2023-05-16T01:57:49.346Z,2.00
2023-05-16T02:00:16.655Z,2.10
2023-05-16T02:02:43.695Z,1.80
2023-05-16T02:05:10.737Z,1.90
2023-05-16T02:07:37.993Z,1.80
2023-05-16T02:10:05.997Z,1.90
2023-05-16T02:12:35.528Z,1.90
2023-05-16T02:15:02.917Z,1.80
2023-05-16T02:17:30.316Z,2.20
2023-05-16T02:22:25.239Z,1.80
2023-05-16T02:24:54.184Z,1.80
2023-05-16T02:27:21.387Z,1.60
2023-05-16T02:29:48.566Z,1.80
2023-05-16T02:32:15.848Z,1.70
2023-05-16T02:34:43.373Z,2.00
2023-05-16T02:37:13.116Z,1.90
2023-05-16T02:39:40.598Z,2.10
2023-05-16T02:42:07.674Z,1.80
2023-05-16T02:44:34.933Z,2.50
2023-05-16T02:47:02.006Z,2.00
2023-05-16T02:49:29.129Z,1.80
2023-05-16T02:51:56.185Z,1.70
2023-05-16T02:54:23.230Z,1.80
2023-05-16T02:56:50.464Z,1.80
2023-05-16T02:59:19.816Z,1.60
2023-05-16T03:01:47.106Z,2.10
2023-05-16T03:04:14.411Z,2.20
2023-05-16T03:06:41.604Z,2.10
2023-05-16T03:09:08.943Z,1.80
2023-05-16T03:11:37.006Z,1.70
2023-05-16T03:14:04.276Z,2.00
2023-05-16T03:16:31.603Z,1.90
2023-05-16T03:18:58.776Z,2.10
2023-05-16T03:21:27.487Z,2.00
2023-05-16T03:23:55.364Z,1.90
2023-05-16T03:26:22.946Z,1.90
2023-05-16T03:28:51.550Z,1.60
2023-05-16T03:31:18.941Z,2.40
2023-05-16T03:33:46.428Z,2.20
2023-05-16T03:36:13.494Z,1.80
2023-05-16T03:38:40.859Z,1.90
2023-05-16T03:41:08.247Z,2.00
2023-05-16T03:43:35.337Z,1.70
2023-05-16T03:46:02.794Z,2.10
2023-05-16T03:48:29.976Z,1.70
2023-05-16T03:50:57.408Z,1.90
2023-05-16T03:53:24.487Z,1.90
2023-05-16T03:55:51.673Z,1.90
2023-05-16T03:58:18.938Z,2.20
2023-05-16T04:00:47.300Z,1.90
2023-05-16T04:03:14.374Z,1.90
2023-05-16T04:05:41.466Z,2.00
2023-05-16T04:08:08.557Z,2.00
2023-05-16T04:10:36.587Z,1.90
2023-05-16T04:13:03.573Z,1.90
2023-05-16T04:15:30.748Z,2.00
2023-05-16T04:17:58.147Z,1.80
2023-05-16T04:20:25.421Z,1.70
2023-05-16T04:22:52.563Z,2.20
2023-05-16T04:25:19.689Z,1.80
2023-05-16T04:27:46.991Z,2.10
2023-05-16T04:30:14.748Z,1.90
2023-05-16T04:32:42.084Z,2.00
2023-05-16T04:35:09.571Z,1.90
2023-05-16T04:37:37.022Z,1.90
2023-05-16T04:40:04.498Z,1.60
2023-05-16T04:44:59.269Z,1.40
2023-05-16T04:47:26.668Z,1.80
2023-05-16T04:49:53.750Z,1.90
2023-05-16T04:52:21.160Z,1.80
2023-05-16T04:54:51.205Z,1.90
2023-05-16T04:57:18.440Z,1.70
2023-05-16T04:59:45.613Z,1.90
2023-05-16T05:02:12.863Z,1.70
2023-05-16T05:04:40.054Z,1.90
2023-05-16T05:07:08.420Z,1.80
2023-05-16T05:09:35.551Z,2.00
2023-05-16T05:12:02.712Z,2.10
2023-05-16T05:14:29.882Z,2.00
2023-05-16T05:16:57.328Z,1.60
2023-05-16T05:19:24.452Z,1.80
2023-05-16T05:21:51.570Z,1.60
2023-05-16T05:24:19.312Z,2.10
2023-05-16T05:26:46.296Z,2.20
2023-05-16T05:29:13.510Z,1.80
2023-05-16T05:31:41.039Z,2.20
2023-05-16T05:34:08.127Z,2.00
2023-05-16T05:36:35.348Z,2.10
2023-05-16T05:39:02.397Z,2.00
2023-05-16T05:41:29.909Z,2.00
2023-05-16T05:43:56.995Z,1.70
2023-05-16T05:46:24.957Z,2.20
2023-05-16T05:51:19.645Z,1.90
2023-05-16T05:53:47.051Z,2.20
2023-05-16T05:56:14.170Z,1.80
2023-05-16T05:58:42.226Z,1.80
2023-05-16T06:01:11.163Z,1.70
2023-05-16T06:03:38.632Z,2.20
2023-05-16T06:06:06.326Z,2.10
2023-05-16T06:08:33.372Z,1.80
2023-05-16T06:11:00.789Z,2.10
2023-05-16T06:13:28.220Z,2.00
2023-05-16T06:15:55.317Z,2.00
2023-05-16T06:18:22.527Z,1.70
2023-05-16T06:20:49.680Z,1.90
2023-05-16T06:23:17.276Z,1.90
2023-05-16T06:25:45.179Z,1.70
2023-05-16T06:28:12.254Z,2.00
2023-05-16T06:30:39.256Z,1.70
2023-05-16T06:33:06.543Z,2.30
2023-05-16T06:35:33.663Z,2.00
2023-05-16T06:38:00.793Z,2.10
2023-05-16T06:40:27.984Z,2.30
2023-05-16T06:42:55.220Z,2.00
2023-05-16T06:45:22.620Z,1.90
2023-05-16T06:47:49.870Z,2.20
2023-05-16T06:50:17.805Z,1.90
2023-05-16T06:55:12.628Z,1.70
2023-05-16T07:00:08.587Z,1.70
2023-05-16T07:02:36.000Z,1.90
2023-05-16T07:05:03.444Z,2.00
2023-05-16T07:07:30.609Z,2.20
2023-05-16T07:09:57.785Z,2.00
2023-05-16T07:12:24.963Z,2.40
2023-05-16T07:14:52.254Z,2.40
2023-05-16T07:17:19.473Z,2.10
2023-05-16T07:19:46.820Z,2.00
2023-05-16T07:22:13.978Z,2.00
2023-05-16T07:24:41.170Z,2.10
2023-05-16T07:27:08.720Z,2.20
2023-05-16T07:29:37.574Z,2.40
2023-05-16T07:32:05.327Z,2.20
2023-05-16T07:34:32.512Z,2.50
2023-05-16T07:36:59.817Z,2.10
2023-05-16T07:39:27.122Z,2.10
2023-05-16T07:41:54.345Z,2.10
2023-05-16T07:44:21.832Z,2.20
2023-05-16T07:46:48.983Z,2.30
2023-05-16T07:49:16.444Z,2.30
2023-05-16T07:51:44.004Z,2.20
2023-05-16T07:54:11.153Z,2.10
2023-05-16T07:56:38.371Z,2.20
2023-05-16T07:59:06.243Z,2.20
2023-05-16T08:04:00.854Z,2.20
2023-05-16T08:06:28.226Z,2.20
2023-05-16T08:08:55.529Z,2.20
2023-05-16T08:11:22.745Z,2.50
2023-05-16T08:13:50.350Z,2.20
2023-05-16T08:16:17.721Z,2.20
2023-05-16T08:18:45.011Z,2.40
2023-05-16T08:21:14.310Z,2.40
2023-05-16T08:23:41.435Z,2.90
2023-05-16T08:26:08.740Z,2.20
2023-05-16T08:28:36.329Z,2.60
2023-05-16T08:31:03.351Z,2.70
2023-05-16T08:33:30.607Z,2.70
2023-05-16T08:35:57.691Z,2.50
2023-05-16T08:38:24.830Z,2.50
2023-05-16T08:40:52.092Z,2.40
2023-05-16T08:43:19.343Z,2.70
2023-05-16T08:45:46.548Z,2.30
2023-05-16T08:48:13.726Z,2.80
2023-05-16T08:50:42.933Z,2.30
2023-05-16T08:53:10.583Z,2.50
2023-05-16T08:58:05.373Z,2.40
2023-05-16T09:00:32.644Z,2.40
2023-05-16T09:02:59.879Z,2.40
2023-05-16T09:05:28.086Z,2.40
2023-05-16T09:07:55.469Z,2.20
2023-05-16T09:10:22.941Z,2.40
2023-05-16T09:12:50.347Z,2.20
2023-05-16T09:15:18.628Z,1.70
2023-05-16T09:17:47.074Z,2.20
2023-05-16T09:20:18.774Z,2.30
2023-05-16T09:22:53.192Z,2.20
2023-05-16T09:25:29.578Z,2.30
2023-05-16T09:28:02.776Z,2.50
2023-05-16T09:30:32.258Z,2.20
2023-05-16T09:32:59.686Z,2.50
2023-05-16T09:37:57.235Z,2.30
2023-05-16T09:40:24.600Z,2.40
2023-05-16T09:43:07.277Z,2.20
2023-05-16T09:48:28.803Z,2.10
2023-05-16T09:50:57.181Z,2.30
2023-05-16T09:53:27.941Z,2.40
2023-05-16T09:56:05.304Z,2.30
2023-05-16T09:58:33.160Z,1.90
2023-05-16T10:03:28.387Z,2.20
2023-05-16T10:05:56.114Z,2.40
2023-05-16T10:08:26.706Z,2.10
2023-05-16T10:10:55.511Z,1.90
2023-05-16T10:13:26.863Z,2.30
2023-05-16T10:15:55.976Z,2.70
2023-05-16T10:18:23.678Z,2.10
2023-05-16T10:20:53.294Z,2.10
2023-05-16T10:23:21.385Z,2.30
2023-05-16T10:25:49.355Z,2.50
2023-05-16T10:28:16.963Z,2.20
2023-05-16T10:30:46.043Z,2.10
2023-05-16T10:33:17.559Z,2.10
2023-05-16T10:35:45.231Z,2.30
2023-05-16T10:38:13.977Z,2.20
2023-05-16T10:40:41.361Z,2.30
2023-05-16T10:43:09.587Z,2.30
2023-05-16T10:45:42.051Z,2.20
2023-05-16T10:48:10.956Z,1.90
2023-05-16T10:50:39.254Z,2.20
2023-05-16T10:53:19.003Z,2.70
2023-05-16T10:56:01.786Z,2.30
2023-05-16T10:58:35.400Z,2.20
2023-05-16T11:01:41.620Z,2.30
2023-05-16T11:04:12.614Z,2.10
2023-05-16T11:06:42.586Z,2.10
2023-05-16T11:09:15.738Z,2.20
2023-05-16T11:11:49.646Z,2.50
2023-05-16T11:14:42.655Z,2.20
2023-05-16T11:17:22.152Z,2.20
2023-05-16T11:19:56.096Z,2.20
2023-05-16T11:22:25.243Z,1.90
2023-05-16T11:25:02.159Z,2.50
2023-05-16T11:27:30.050Z,2.20
2023-05-16T11:30:06.581Z,2.10
2023-05-16T11:32:35.034Z,2.50
2023-05-16T11:35:02.562Z,2.40
2023-05-16T11:37:29.943Z,2.10
2023-05-16T11:40:01.633Z,2.20
2023-05-16T11:42:34.758Z,2.30
2023-05-16T11:45:09.401Z,2.40
2023-05-16T11:47:37.601Z,2.40
2023-05-16T11:50:16.316Z,2.40
2023-05-16T11:52:44.855Z,2.20
2023-05-16T11:55:12.081Z,2.40
2023-05-16T11:57:39.886Z,1.90
2023-05-16T12:00:18.687Z,2.30
2023-05-16T12:02:47.992Z,2.10
2023-05-16T12:05:16.085Z,2.70
2023-05-16T12:07:44.885Z,2.30
2023-05-16T12:10:14.080Z,2.10
2023-05-16T12:12:42.606Z,2.10
2023-05-16T12:15:10.039Z,2.10
2023-05-16T12:17:37.820Z,2.90
2023-05-16T12:22:43.437Z,2.00
2023-05-16T12:25:24.334Z,2.30
2023-05-16T12:27:53.584Z,2.30
2023-05-16T12:30:23.195Z,2.30
2023-05-16T12:33:07.667Z,2.60
2023-05-16T12:35:35.859Z,2.50
2023-05-16T12:38:07.984Z,2.50
2023-05-16T12:40:37.320Z,2.50
2023-05-16T12:43:04.691Z,2.10
2023-05-16T12:45:35.224Z,2.20
2023-05-16T12:48:09.113Z,2.60
2023-05-16T12:50:37.098Z,2.60
2023-05-16T12:53:04.790Z,2.80
2023-05-16T12:55:32.428Z,3.10
2023-05-16T12:57:59.581Z,2.30
2023-05-16T13:00:27.181Z,2.30
2023-05-16T13:02:54.883Z,2.00
2023-05-16T13:05:23.665Z,2.40
2023-05-16T13:07:53.819Z,2.00
2023-05-16T13:10:21.091Z,2.60
2023-05-16T13:12:48.307Z,2.20
2023-05-16T13:15:15.400Z,2.50
2023-05-16T13:17:47.853Z,2.10
2023-05-16T13:20:15.517Z,2.00
2023-05-16T13:22:43.287Z,2.20
2023-05-16T13:25:10.963Z,1.90
2023-05-16T13:27:38.430Z,1.90
2023-05-16T13:30:06.299Z,2.30
2023-05-16T13:32:34.193Z,2.40
2023-05-16T13:37:28.544Z,2.20
2023-05-16T13:39:56.340Z,1.80
2023-05-16T13:42:26.582Z,2.10
2023-05-16T13:44:53.804Z,2.20
2023-05-16T13:47:21.103Z,2.40
2023-05-16T13:49:49.073Z,1.90
2023-05-16T13:52:16.667Z,2.00
2023-05-16T13:54:43.871Z,1.90
2023-05-16T13:57:11.785Z,2.20
2023-05-16T14:00:04.008Z,2.10
2023-05-16T14:02:26.951Z,2.40
2023-05-16T14:04:54.345Z,1.80
2023-05-16T14:07:21.794Z,1.90
2023-05-16T14:09:49.124Z,2.00
2023-05-16T14:12:16.263Z,1.70
2023-05-16T14:14:43.340Z,2.00
2023-05-16T14:17:10.657Z,1.60
2023-05-16T14:19:37.836Z,1.80
2023-05-16T14:22:05.284Z,2.00
2023-05-16T14:24:32.630Z,1.60
2023-05-16T14:27:00.601Z,1.70
2023-05-16T14:29:28.550Z,2.00
2023-05-16T14:31:56.939Z,1.90
2023-05-16T14:34:24.139Z,1.80
2023-05-16T14:36:52.182Z,1.90
2023-05-16T14:39:19.467Z,1.80
2023-05-16T14:41:47.074Z,1.90
2023-05-16T14:44:14.265Z,2.20
2023-05-16T14:46:41.758Z,2.00
2023-05-16T14:49:09.377Z,1.90
2023-05-16T14:51:36.658Z,2.30
2023-05-16T14:54:04.397Z,2.40
2023-05-16T14:56:32.261Z,1.90
2023-05-16T15:01:27.873Z,1.60
2023-05-16T15:03:56.398Z,2.00
2023-05-16T15:06:27.070Z,1.90
2023-05-16T15:08:55.251Z,1.80
2023-05-16T15:11:24.828Z,2.00
2023-05-16T15:13:52.039Z,1.70
2023-05-16T15:16:19.720Z,1.70
2023-05-16T15:18:47.045Z,1.80
2023-05-16T15:21:14.382Z,1.50
2023-05-16T15:23:42.884Z,1.80
2023-05-16T15:26:09.971Z,1.90
2023-05-16T15:28:37.168Z,1.60
2023-05-16T15:31:07.365Z,2.00
2023-05-16T15:33:34.663Z,1.80
2023-05-16T15:36:01.791Z,1.70
2023-05-16T15:38:29.358Z,1.80
2023-05-16T15:41:14.211Z,2.10
2023-05-16T15:43:44.183Z,1.80
2023-05-16T15:46:11.577Z,2.20
2023-05-16T15:48:42.990Z,2.20
2023-05-16T15:51:11.624Z,2.00
2023-05-16T15:53:38.858Z,1.90
2023-05-16T15:56:07.197Z,1.60
2023-05-16T15:58:34.747Z,2.00
2023-05-16T16:01:02.446Z,1.90
2023-05-16T16:03:30.001Z,1.50
2023-05-16T16:05:57.673Z,2.10
2023-05-16T16:08:25.568Z,1.90
2023-05-16T16:13:19.898Z,1.70
2023-05-16T16:15:47.074Z,1.70
2023-05-16T16:18:14.631Z,2.00
2023-05-16T16:20:42.596Z,1.80
2023-05-16T16:23:10.160Z,1.70
2023-05-16T16:25:37.353Z,1.70
2023-05-16T16:28:05.028Z,2.00
2023-05-16T16:30:32.098Z,1.80
2023-05-16T16:32:59.447Z,1.60
2023-05-16T16:35:27.250Z,1.70
2023-05-16T16:38:06.250Z,2.00
2023-05-16T16:40:34.484Z,1.90
2023-05-16T16:43:02.657Z,1.70
2023-05-16T16:45:30.291Z,1.80
2023-05-16T16:47:58.209Z,2.10
2023-05-16T16:50:25.553Z,1.90
2023-05-16T16:52:54.016Z,1.90
2023-05-16T16:55:21.593Z,1.70
2023-05-16T16:57:48.746Z,2.20
2023-05-16T17:00:16.412Z,1.90
2023-05-16T17:02:43.871Z,1.60
2023-05-16T17:05:11.162Z,2.10
2023-05-16T17:07:38.490Z,1.70
2023-05-16T17:10:08.070Z,1.60
2023-05-16T17:12:35.296Z,1.70
2023-05-16T17:15:02.564Z,1.60
2023-05-16T17:17:30.044Z,2.20
2023-05-16T17:19:57.532Z,1.90
2023-05-16T17:22:24.727Z,2.00
2023-05-16T17:24:52.078Z,1.90
2023-05-16T17:27:19.460Z,2.10
2023-05-16T17:29:46.533Z,1.90
2023-05-16T17:32:13.997Z,2.00
2023-05-16T17:34:41.126Z,2.50
2023-05-16T17:37:10.728Z,1.60
2023-05-16T17:39:38.148Z,1.60
2023-05-16T17:42:09.432Z,1.80
2023-05-16T17:44:37.020Z,1.90
2023-05-16T17:47:04.381Z,2.00
2023-05-16T17:49:31.682Z,1.70
2023-05-16T17:51:59.330Z,2.10
2023-05-16T17:54:30.852Z,2.10
2023-05-16T17:56:58.220Z,1.90
2023-05-16T17:59:27.595Z,2.00
2023-05-16T18:01:56.476Z,2.10
2023-05-16T18:04:24.134Z,1.90
2023-05-16T18:09:22.596Z,1.60
2023-05-16T18:11:51.040Z,2.00
2023-05-16T18:14:18.223Z,1.80
2023-05-16T18:16:45.447Z,1.90
2023-05-16T18:19:12.837Z,2.00
2023-05-16T18:21:41.287Z,1.80
2023-05-16T18:24:08.814Z,1.90
2023-05-16T18:26:36.439Z,2.10
2023-05-16T18:29:03.902Z,2.00
2023-05-16T18:31:33.913Z,2.20
2023-05-16T18:34:04.103Z,2.30
2023-05-16T18:36:31.476Z,2.40
2023-05-16T18:38:58.906Z,2.50
2023-05-16T18:41:26.465Z,2.20
2023-05-16T18:43:53.590Z,2.60
2023-05-16T18:46:20.895Z,2.60
2023-05-16T18:48:48.096Z,2.80
2023-05-16T18:51:15.260Z,2.50
2023-05-16T18:53:42.608Z,2.80
2023-05-16T18:56:11.758Z,2.50
2023-05-16T18:58:39.245Z,3.00
2023-05-16T19:01:06.543Z,3.20
2023-05-16T19:03:33.865Z,3.00
2023-05-16T19:06:01.180Z,3.20
2023-05-16T19:08:36.753Z,3.20
2023-05-16T19:11:14.461Z,3.10
2023-05-16T19:13:41.821Z,3.10
2023-05-16T19:16:09.369Z,3.30
2023-05-16T19:18:37.499Z,2.90
2023-05-16T19:21:04.949Z,2.60
2023-05-16T19:23:32.422Z,2.90
2023-05-16T19:26:00.501Z,3.00
2023-05-16T19:28:27.682Z,3.10
2023-05-16T19:30:54.753Z,2.90
2023-05-16T19:33:22.004Z,2.90
2023-05-16T19:35:51.718Z,2.70
2023-05-16T19:38:20.004Z,2.70
2023-05-16T19:40:47.587Z,2.50
2023-05-16T19:43:15.028Z,2.40
2023-05-16T19:45:42.273Z,2.40
2023-05-16T19:48:09.737Z,2.70
2023-05-16T19:50:37.080Z,2.40
2023-05-16T19:53:04.322Z,2.50
2023-05-16T19:55:31.997Z,2.50
2023-05-16T19:57:59.518Z,2.80
2023-05-16T20:00:26.885Z,2.60
2023-05-16T20:02:54.151Z,2.60
2023-05-16T20:05:23.574Z,2.40
2023-05-16T20:07:50.889Z,2.40
2023-05-16T20:10:19.774Z,2.50
2023-05-16T20:12:48.704Z,2.80
2023-05-16T20:15:16.495Z,2.40
2023-05-16T20:17:43.674Z,2.60
2023-05-16T20:20:11.093Z,2.70
2023-05-16T20:22:42.011Z,2.70
2023-05-16T20:25:10.247Z,2.40
2023-05-16T20:27:38.143Z,2.30
2023-05-16T20:30:06.840Z,2.70
2023-05-16T20:32:34.425Z,1.90
2023-05-16T20:35:04.616Z,2.00
2023-05-16T20:37:32.034Z,2.30
2023-05-16T20:39:59.110Z,2.10
2023-05-16T20:42:26.624Z,2.40
2023-05-16T20:44:53.646Z,2.40
2023-05-16T20:47:20.639Z,1.80
2023-05-16T20:49:47.869Z,2.30
2023-05-16T20:52:14.957Z,1.90
2023-05-16T20:54:42.186Z,1.80
2023-05-16T20:57:09.481Z,2.10
2023-05-16T20:59:37.877Z,2.40
2023-05-16T21:02:06.337Z,2.50
2023-05-16T21:04:33.646Z,2.30
2023-05-16T21:07:00.822Z,2.70
2023-05-16T21:09:27.930Z,2.30
2023-05-16T21:11:55.101Z,2.90
2023-05-16T21:14:22.440Z,2.60
2023-05-16T21:16:49.530Z,2.70
2023-05-16T21:19:16.952Z,2.40
2023-05-16T21:21:44.200Z,2.60
2023-05-16T21:24:11.299Z,2.70
2023-05-16T21:26:39.046Z,2.40
2023-05-16T21:29:06.285Z,2.70
2023-05-16T21:31:33.326Z,2.60
2023-05-16T21:34:01.065Z,2.50
2023-05-16T21:36:28.190Z,2.80
2023-05-16T21:38:55.502Z,2.80
2023-05-16T21:41:23.407Z,2.60
2023-05-16T21:43:50.418Z,3.00
2023-05-16T21:46:17.469Z,2.30
2023-05-16T21:48:44.733Z,3.00
2023-05-16T21:51:12.189Z,2.70
2023-05-16T21:53:39.366Z,2.90
2023-05-16T21:56:06.600Z,3.00
2023-05-16T21:58:33.737Z,3.10
2023-05-16T22:01:00.765Z,2.80
2023-05-16T22:04:37.641Z,3.60
2023-05-16T22:07:05.250Z,3.00
2023-05-16T22:09:32.330Z,2.90
2023-05-16T22:11:59.750Z,2.80
2023-05-16T22:14:26.899Z,3.00
2023-05-16T22:16:54.180Z,2.60
2023-05-16T22:19:21.373Z,3.00
2023-05-16T22:21:48.430Z,3.30
2023-05-16T22:24:15.514Z,3.40
2023-05-16T22:26:42.718Z,2.90
2023-05-16T22:29:10.175Z,3.20
2023-05-16T22:31:37.331Z,3.00
2023-05-16T22:34:04.783Z,3.20
2023-05-16T22:36:32.040Z,3.30
2023-05-16T22:38:59.373Z,3.30
2023-05-16T22:41:29.212Z,3.00
2023-05-16T22:43:56.299Z,2.90
2023-05-16T22:46:23.670Z,2.90
2023-05-16T22:48:50.833Z,2.70
2023-05-16T22:51:18.173Z,3.70
2023-05-16T22:53:45.433Z,2.50
2023-05-16T22:56:12.609Z,3.10
2023-05-16T22:58:39.812Z,3.10
2023-05-16T23:01:07.038Z,3.00
2023-05-16T23:03:34.436Z,2.90
2023-05-16T23:06:01.859Z,3.50
2023-05-16T23:08:29.040Z,2.80
2023-05-16T23:10:56.300Z,3.40
2023-05-16T23:13:23.600Z,2.60
2023-05-16T23:15:50.670Z,2.60
2023-05-16T23:18:18.156Z,2.70
2023-05-16T23:20:45.432Z,2.50
2023-05-16T23:23:12.499Z,2.60
2023-05-16T23:25:39.634Z,3.20
2023-05-16T23:28:06.685Z,2.50
2023-05-16T23:30:34.409Z,2.60
2023-05-16T23:33:01.645Z,2.60
2023-05-16T23:35:29.070Z,2.60
2023-05-16T23:37:56.395Z,2.70
2023-05-16T23:40:23.572Z,2.70
2023-05-16T23:42:51.468Z,2.50
2023-05-16T23:45:18.490Z,2.80
2023-05-16T23:47:46.179Z,2.90
2023-05-16T23:52:40.512Z,2.50
2023-05-16T23:55:08.248Z,2.70
2023-05-16T23:57:35.483Z,2.40
